sensor_id;sensor_type;location;lat;lon;timestamp;temperature;humidity
25112;DHT22;13092;51.996;4.458;2024-03-17T00:00:49;9.00;99.90
25112;DHT22;13092;51.996;4.458;2024-03-17T00:03:16;8.90;99.90
25112;DHT22;13092;51.996;4.458;2024-03-17T00:05:44;9.00;99.90
25112;DHT22;13092;51.996;4.458;2024-03-17T00:08:11;9.00;99.90
25112;DHT22;13092;51.996;4.458;2024-03-17T00:10:39;9.00;99.90
25112;DHT22;13092;51.996;4.458;2024-03-17T00:13:05;9.00;99.90
25112;DHT22;13092;51.996;4.458;2024-03-17T00:15:32;9.10;99.90
25112;DHT22;13092;51.996;4.458;2024-03-17T00:17:59;8.90;99.90
25112;DHT22;13092;51.996;4.458;2024-03-17T00:20:26;8.80;99.90
25112;DHT22;13092;51.996;4.458;2024-03-17T00:22:53;8.90;99.90
25112;DHT22;13092;51.996;4.458;2024-03-17T00:25:22;9.00;99.90
25112;DHT22;13092;51.996;4.458;2024-03-17T00:27:48;8.90;99.90
25112;DHT22;13092;51.996;4.458;2024-03-17T00:30:16;9.00;99.90
25112;DHT22;13092;51.996;4.458;2024-03-17T00:32:44;8.90;99.90
25112;DHT22;13092;51.996;4.458;2024-03-17T00:35:11;9.10;99.90
25112;DHT22;13092;51.996;4.458;2024-03-17T00:37:39;9.00;99.90
25112;DHT22;13092;51.996;4.458;2024-03-17T00:40:07;9.00;99.90
25112;DHT22;13092;51.996;4.458;2024-03-17T00:42:35;8.90;99.90
25112;DHT22;13092;51.996;4.458;2024-03-17T00:45:02;8.90;99.90
25112;DHT22;13092;51.996;4.458;2024-03-17T00:47:31;9.00;99.90
25112;DHT22;13092;51.996;4.458;2024-03-17T00:49:58;9.00;99.90
25112;DHT22;13092;51.996;4.458;2024-03-17T00:52:25;9.10;99.90
25112;DHT22;13092;51.996;4.458;2024-03-17T00:54:56;9.20;99.90
25112;DHT22;13092;51.996;4.458;2024-03-17T00:57:22;9.00;99.90
25112;DHT22;13092;51.996;4.458;2024-03-17T00:59:51;9.20;99.90
25112;DHT22;13092;51.996;4.458;2024-03-17T01:02:18;9.10;99.90
25112;DHT22;13092;51.996;4.458;2024-03-17T01:04:47;9.10;99.90
25112;DHT22;13092;51.996;4.458;2024-03-17T01:07:13;9.10;99.90
25112;DHT22;13092;51.996;4.458;2024-03-17T01:09:40;9.10;99.90
25112;DHT22;13092;51.996;4.458;2024-03-17T01:12:07;9.10;99.90
25112;DHT22;13092;51.996;4.458;2024-03-17T01:14:34;9.30;99.90
25112;DHT22;13092;51.996;4.458;2024-03-17T01:17:02;9.10;99.90
25112;DHT22;13092;51.996;4.458;2024-03-17T01:19:30;9.30;99.90
25112;DHT22;13092;51.996;4.458;2024-03-17T01:21:57;8.90;99.90
25112;DHT22;13092;51.996;4.458;2024-03-17T01:24:24;9.10;99.90
25112;DHT22;13092;51.996;4.458;2024-03-17T01:26:50;9.00;99.90
25112;DHT22;13092;51.996;4.458;2024-03-17T01:29:21;9.00;99.90
25112;DHT22;13092;51.996;4.458;2024-03-17T01:31:47;9.30;99.90
25112;DHT22;13092;51.996;4.458;2024-03-17T01:34:16;9.10;99.90
25112;DHT22;13092;51.996;4.458;2024-03-17T01:36:42;9.10;99.90
25112;DHT22;13092;51.996;4.458;2024-03-17T01:39:09;9.00;99.90
25112;DHT22;13092;51.996;4.458;2024-03-17T01:41:37;9.00;99.90
25112;DHT22;13092;51.996;4.458;2024-03-17T01:44:04;9.00;99.90
25112;DHT22;13092;51.996;4.458;2024-03-17T01:46:30;9.00;99.90
25112;DHT22;13092;51.996;4.458;2024-03-17T01:48:58;9.00;99.90
25112;DHT22;13092;51.996;4.458;2024-03-17T01:51:26;9.00;99.90
25112;DHT22;13092;51.996;4.458;2024-03-17T01:53:56;9.00;99.90
25112;DHT22;13092;51.996;4.458;2024-03-17T01:56:22;9.10;99.90
25112;DHT22;13092;51.996;4.458;2024-03-17T01:58:51;9.00;99.90
25112;DHT22;13092;51.996;4.458;2024-03-17T02:01:17;9.00;99.90
25112;DHT22;13092;51.996;4.458;2024-03-17T02:03:44;8.90;99.90
25112;DHT22;13092;51.996;4.458;2024-03-17T02:06:10;9.00;99.90
25112;DHT22;13092;51.996;4.458;2024-03-17T02:08:49;8.90;99.90
25112;DHT22;13092;51.996;4.458;2024-03-17T02:11:25;9.00;99.90
25112;DHT22;13092;51.996;4.458;2024-03-17T02:13:52;9.00;99.90
25112;DHT22;13092;51.996;4.458;2024-03-17T02:16:20;8.90;99.90
25112;DHT22;13092;51.996;4.458;2024-03-17T02:18:46;8.80;99.90
25112;DHT22;13092;51.996;4.458;2024-03-17T02:21:13;8.80;99.90
25112;DHT22;13092;51.996;4.458;2024-03-17T02:23:42;8.90;99.90
25112;DHT22;13092;51.996;4.458;2024-03-17T02:26:09;8.90;99.90
25112;DHT22;13092;51.996;4.458;2024-03-17T02:28:40;9.00;99.90
25112;DHT22;13092;51.996;4.458;2024-03-17T02:31:08;8.80;99.90
25112;DHT22;13092;51.996;4.458;2024-03-17T02:33:35;8.80;99.90
25112;DHT22;13092;51.996;4.458;2024-03-17T02:36:03;8.80;99.90
25112;DHT22;13092;51.996;4.458;2024-03-17T02:38:30;8.80;99.90
25112;DHT22;13092;51.996;4.458;2024-03-17T02:41:17;8.80;99.90
25112;DHT22;13092;51.996;4.458;2024-03-17T02:43:44;8.80;99.90
25112;DHT22;13092;51.996;4.458;2024-03-17T02:46:11;8.90;99.90
25112;DHT22;13092;51.996;4.458;2024-03-17T02:48:39;8.90;99.90
25112;DHT22;13092;51.996;4.458;2024-03-17T02:51:11;8.90;99.90
25112;DHT22;13092;51.996;4.458;2024-03-17T02:53:40;8.80;99.90
25112;DHT22;13092;51.996;4.458;2024-03-17T02:56:07;8.90;99.90
25112;DHT22;13092;51.996;4.458;2024-03-17T02:58:37;8.90;99.90
25112;DHT22;13092;51.996;4.458;2024-03-17T03:01:05;9.00;99.90
25112;DHT22;13092;51.996;4.458;2024-03-17T03:03:33;9.20;99.90
25112;DHT22;13092;51.996;4.458;2024-03-17T03:06:00;9.10;99.90
25112;DHT22;13092;51.996;4.458;2024-03-17T03:08:30;9.00;99.90
25112;DHT22;13092;51.996;4.458;2024-03-17T03:10:57;9.00;99.90
25112;DHT22;13092;51.996;4.458;2024-03-17T03:13:24;9.00;99.90
25112;DHT22;13092;51.996;4.458;2024-03-17T03:15:53;9.10;99.90
25112;DHT22;13092;51.996;4.458;2024-03-17T03:18:21;9.10;99.90
25112;DHT22;13092;51.996;4.458;2024-03-17T03:20:50;9.10;99.90
25112;DHT22;13092;51.996;4.458;2024-03-17T03:23:18;9.10;99.90
25112;DHT22;13092;51.996;4.458;2024-03-17T03:25:45;9.10;99.90
25112;DHT22;13092;51.996;4.458;2024-03-17T03:28:13;9.30;99.90
25112;DHT22;13092;51.996;4.458;2024-03-17T03:30:40;9.10;99.90
25112;DHT22;13092;51.996;4.458;2024-03-17T03:33:09;9.20;99.90
25112;DHT22;13092;51.996;4.458;2024-03-17T03:35:36;9.20;99.90
25112;DHT22;13092;51.996;4.458;2024-03-17T03:38:03;9.10;99.90
25112;DHT22;13092;51.996;4.458;2024-03-17T03:40:30;9.10;99.90
25112;DHT22;13092;51.996;4.458;2024-03-17T03:42:58;9.20;99.90
25112;DHT22;13092;51.996;4.458;2024-03-17T03:45:25;9.20;99.90
25112;DHT22;13092;51.996;4.458;2024-03-17T03:47:52;9.30;99.90
25112;DHT22;13092;51.996;4.458;2024-03-17T03:50:21;9.20;99.90
25112;DHT22;13092;51.996;4.458;2024-03-17T03:52:49;9.40;99.90
25112;DHT22;13092;51.996;4.458;2024-03-17T03:55:18;9.20;99.90
25112;DHT22;13092;51.996;4.458;2024-03-17T03:57:45;9.30;99.90
25112;DHT22;13092;51.996;4.458;2024-03-17T04:00:14;9.40;99.90
25112;DHT22;13092;51.996;4.458;2024-03-17T04:02:42;9.20;99.90
25112;DHT22;13092;51.996;4.458;2024-03-17T04:05:10;9.20;99.90
25112;DHT22;13092;51.996;4.458;2024-03-17T04:07:39;9.20;99.90
25112;DHT22;13092;51.996;4.458;2024-03-17T04:10:09;9.30;99.90
25112;DHT22;13092;51.996;4.458;2024-03-17T04:12:37;9.20;99.90
25112;DHT22;13092;51.996;4.458;2024-03-17T04:15:04;9.20;99.90
25112;DHT22;13092;51.996;4.458;2024-03-17T04:17:33;9.20;99.90
25112;DHT22;13092;51.996;4.458;2024-03-17T04:20:00;9.20;99.90
25112;DHT22;13092;51.996;4.458;2024-03-17T04:22:27;9.20;99.90
25112;DHT22;13092;51.996;4.458;2024-03-17T04:24:56;9.20;99.90
25112;DHT22;13092;51.996;4.458;2024-03-17T04:27:23;9.30;99.90
25112;DHT22;13092;51.996;4.458;2024-03-17T04:29:52;9.10;99.90
25112;DHT22;13092;51.996;4.458;2024-03-17T04:32:19;9.20;99.90
25112;DHT22;13092;51.996;4.458;2024-03-17T04:34:46;9.20;99.90
25112;DHT22;13092;51.996;4.458;2024-03-17T04:37:13;9.20;99.90
25112;DHT22;13092;51.996;4.458;2024-03-17T04:39:41;9.20;99.90
25112;DHT22;13092;51.996;4.458;2024-03-17T04:42:11;9.20;99.90
25112;DHT22;13092;51.996;4.458;2024-03-17T04:44:40;9.20;99.90
25112;DHT22;13092;51.996;4.458;2024-03-17T04:47:07;9.20;99.90
25112;DHT22;13092;51.996;4.458;2024-03-17T04:49:35;9.30;99.90
25112;DHT22;13092;51.996;4.458;2024-03-17T04:52:03;9.30;99.90
25112;DHT22;13092;51.996;4.458;2024-03-17T04:54:31;9.30;99.90
25112;DHT22;13092;51.996;4.458;2024-03-17T04:56:57;9.20;99.90
25112;DHT22;13092;51.996;4.458;2024-03-17T04:59:26;9.40;99.90
25112;DHT22;13092;51.996;4.458;2024-03-17T05:01:54;9.30;99.90
25112;DHT22;13092;51.996;4.458;2024-03-17T05:04:21;9.20;99.90
25112;DHT22;13092;51.996;4.458;2024-03-17T05:06:49;9.20;99.90
25112;DHT22;13092;51.996;4.458;2024-03-17T05:09:16;9.20;99.90
25112;DHT22;13092;51.996;4.458;2024-03-17T05:11:46;9.20;99.90
25112;DHT22;13092;51.996;4.458;2024-03-17T05:14:14;9.20;99.90
25112;DHT22;13092;51.996;4.458;2024-03-17T05:16:42;9.20;99.90
25112;DHT22;13092;51.996;4.458;2024-03-17T05:19:09;9.20;99.90
25112;DHT22;13092;51.996;4.458;2024-03-17T05:21:38;9.10;99.90
25112;DHT22;13092;51.996;4.458;2024-03-17T05:24:06;9.30;99.90
25112;DHT22;13092;51.996;4.458;2024-03-17T05:26:33;9.10;99.90
25112;DHT22;13092;51.996;4.458;2024-03-17T05:29:00;9.10;99.90
25112;DHT22;13092;51.996;4.458;2024-03-17T05:31:27;9.30;99.90
25112;DHT22;13092;51.996;4.458;2024-03-17T05:33:58;9.10;99.90
25112;DHT22;13092;51.996;4.458;2024-03-17T05:36:26;9.20;99.90
25112;DHT22;13092;51.996;4.458;2024-03-17T05:38:53;9.30;99.90
25112;DHT22;13092;51.996;4.458;2024-03-17T05:41:20;9.20;99.90
25112;DHT22;13092;51.996;4.458;2024-03-17T05:43:47;9.10;99.90
25112;DHT22;13092;51.996;4.458;2024-03-17T05:46:15;9.10;99.90
25112;DHT22;13092;51.996;4.458;2024-03-17T05:48:43;9.10;99.90
25112;DHT22;13092;51.996;4.458;2024-03-17T05:51:12;9.10;99.90
25112;DHT22;13092;51.996;4.458;2024-03-17T05:53:42;9.20;99.90
25112;DHT22;13092;51.996;4.458;2024-03-17T05:56:10;9.10;99.90
25112;DHT22;13092;51.996;4.458;2024-03-17T05:58:38;9.20;99.90
25112;DHT22;13092;51.996;4.458;2024-03-17T06:01:06;9.00;99.90
25112;DHT22;13092;51.996;4.458;2024-03-17T06:03:35;9.20;99.90
25112;DHT22;13092;51.996;4.458;2024-03-17T06:06:06;9.20;99.90
25112;DHT22;13092;51.996;4.458;2024-03-17T06:08:37;9.20;99.90
25112;DHT22;13092;51.996;4.458;2024-03-17T06:11:04;9.30;99.90
25112;DHT22;13092;51.996;4.458;2024-03-17T06:13:32;9.30;99.90
25112;DHT22;13092;51.996;4.458;2024-03-17T06:16:01;9.30;99.90
25112;DHT22;13092;51.996;4.458;2024-03-17T06:18:28;9.50;99.90
25112;DHT22;13092;51.996;4.458;2024-03-17T06:20:56;9.30;99.90
25112;DHT22;13092;51.996;4.458;2024-03-17T06:23:25;9.40;99.90
25112;DHT22;13092;51.996;4.458;2024-03-17T06:25:55;9.40;99.90
25112;DHT22;13092;51.996;4.458;2024-03-17T06:28:23;9.40;99.90
25112;DHT22;13092;51.996;4.458;2024-03-17T06:30:56;9.50;99.90
25112;DHT22;13092;51.996;4.458;2024-03-17T06:33:25;9.40;99.90
25112;DHT22;13092;51.996;4.458;2024-03-17T06:36:00;9.50;99.90
25112;DHT22;13092;51.996;4.458;2024-03-17T06:38:30;9.60;99.90
25112;DHT22;13092;51.996;4.458;2024-03-17T06:40:58;9.50;99.90
25112;DHT22;13092;51.996;4.458;2024-03-17T06:43:25;9.50;99.90
25112;DHT22;13092;51.996;4.458;2024-03-17T06:45:56;9.60;99.90
25112;DHT22;13092;51.996;4.458;2024-03-17T06:48:24;9.70;99.90
25112;DHT22;13092;51.996;4.458;2024-03-17T06:50:51;9.70;99.90
25112;DHT22;13092;51.996;4.458;2024-03-17T06:53:20;9.70;99.90
25112;DHT22;13092;51.996;4.458;2024-03-17T06:55:59;9.80;99.90
25112;DHT22;13092;51.996;4.458;2024-03-17T06:58:27;9.80;99.90
25112;DHT22;13092;51.996;4.458;2024-03-17T07:00:56;10.00;99.90
25112;DHT22;13092;51.996;4.458;2024-03-17T07:03:26;10.00;99.90
25112;DHT22;13092;51.996;4.458;2024-03-17T07:05:55;10.00;99.90
25112;DHT22;13092;51.996;4.458;2024-03-17T07:08:23;10.00;99.90
25112;DHT22;13092;51.996;4.458;2024-03-17T07:11:02;10.10;99.90
25112;DHT22;13092;51.996;4.458;2024-03-17T07:13:30;10.20;99.90
25112;DHT22;13092;51.996;4.458;2024-03-17T07:15:58;10.20;99.90
25112;DHT22;13092;51.996;4.458;2024-03-17T07:18:26;10.30;99.90
25112;DHT22;13092;51.996;4.458;2024-03-17T07:20:56;10.30;99.90
25112;DHT22;13092;51.996;4.458;2024-03-17T07:23:24;10.50;99.90
25112;DHT22;13092;51.996;4.458;2024-03-17T07:25:52;10.40;99.90
25112;DHT22;13092;51.996;4.458;2024-03-17T07:28:21;10.40;99.90
25112;DHT22;13092;51.996;4.458;2024-03-17T07:30:49;10.40;99.90
25112;DHT22;13092;51.996;4.458;2024-03-17T07:33:17;10.50;99.90
25112;DHT22;13092;51.996;4.458;2024-03-17T07:35:50;10.50;99.90
25112;DHT22;13092;51.996;4.458;2024-03-17T07:38:18;10.70;99.90
25112;DHT22;13092;51.996;4.458;2024-03-17T07:40:57;10.60;99.90
25112;DHT22;13092;51.996;4.458;2024-03-17T07:43:26;10.60;99.90
25112;DHT22;13092;51.996;4.458;2024-03-17T07:45:58;10.60;99.90
25112;DHT22;13092;51.996;4.458;2024-03-17T07:48:25;10.50;99.90
25112;DHT22;13092;51.996;4.458;2024-03-17T07:50:56;10.60;99.90
25112;DHT22;13092;51.996;4.458;2024-03-17T07:53:24;10.60;99.90
25112;DHT22;13092;51.996;4.458;2024-03-17T07:56:00;10.70;99.90
25112;DHT22;13092;51.996;4.458;2024-03-17T07:58:28;10.60;99.90
25112;DHT22;13092;51.996;4.458;2024-03-17T08:01:00;10.70;99.90
25112;DHT22;13092;51.996;4.458;2024-03-17T08:03:28;10.70;99.90
25112;DHT22;13092;51.996;4.458;2024-03-17T08:05:55;10.80;99.90
25112;DHT22;13092;51.996;4.458;2024-03-17T08:08:23;10.80;99.90
25112;DHT22;13092;51.996;4.458;2024-03-17T08:10:50;10.70;99.90
25112;DHT22;13092;51.996;4.458;2024-03-17T08:13:18;10.70;99.90
25112;DHT22;13092;51.996;4.458;2024-03-17T08:15:54;10.80;99.90
25112;DHT22;13092;51.996;4.458;2024-03-17T08:18:21;10.80;99.90
25112;DHT22;13092;51.996;4.458;2024-03-17T08:20:48;10.80;99.90
25112;DHT22;13092;51.996;4.458;2024-03-17T08:23:16;10.90;99.90
25112;DHT22;13092;51.996;4.458;2024-03-17T08:25:51;10.90;99.90
25112;DHT22;13092;51.996;4.458;2024-03-17T08:28:19;10.90;99.90
25112;DHT22;13092;51.996;4.458;2024-03-17T08:30:55;11.00;99.90
25112;DHT22;13092;51.996;4.458;2024-03-17T08:33:22;11.00;99.90
25112;DHT22;13092;51.996;4.458;2024-03-17T08:35:54;11.00;99.90
25112;DHT22;13092;51.996;4.458;2024-03-17T08:38:21;11.00;99.90
25112;DHT22;13092;51.996;4.458;2024-03-17T08:40:49;11.00;99.90
25112;DHT22;13092;51.996;4.458;2024-03-17T08:43:16;11.20;99.90
25112;DHT22;13092;51.996;4.458;2024-03-17T08:45:43;11.20;99.90
25112;DHT22;13092;51.996;4.458;2024-03-17T08:48:12;11.30;99.90
25112;DHT22;13092;51.996;4.458;2024-03-17T08:50:39;11.10;99.90
25112;DHT22;13092;51.996;4.458;2024-03-17T08:53:06;11.50;99.90
25112;DHT22;13092;51.996;4.458;2024-03-17T08:55:33;11.40;99.90
25112;DHT22;13092;51.996;4.458;2024-03-17T08:58:00;11.40;99.90
25112;DHT22;13092;51.996;4.458;2024-03-17T09:00:28;11.50;99.90
25112;DHT22;13092;51.996;4.458;2024-03-17T09:02:56;11.60;99.90
25112;DHT22;13092;51.996;4.458;2024-03-17T09:05:25;11.60;99.90
25112;DHT22;13092;51.996;4.458;2024-03-17T09:07:52;11.80;99.90
25112;DHT22;13092;51.996;4.458;2024-03-17T09:10:21;11.90;99.90
25112;DHT22;13092;51.996;4.458;2024-03-17T09:12:48;12.00;99.90
25112;DHT22;13092;51.996;4.458;2024-03-17T09:15:15;12.00;99.90
25112;DHT22;13092;51.996;4.458;2024-03-17T09:17:42;12.10;99.90
25112;DHT22;13092;51.996;4.458;2024-03-17T09:20:11;12.10;99.90
25112;DHT22;13092;51.996;4.458;2024-03-17T09:22:42;12.20;99.90
25112;DHT22;13092;51.996;4.458;2024-03-17T09:25:09;12.30;99.90
25112;DHT22;13092;51.996;4.458;2024-03-17T09:27:37;12.40;99.90
25112;DHT22;13092;51.996;4.458;2024-03-17T09:30:05;12.40;99.90
25112;DHT22;13092;51.996;4.458;2024-03-17T09:32:35;12.50;99.90
25112;DHT22;13092;51.996;4.458;2024-03-17T09:35:02;12.50;99.90
25112;DHT22;13092;51.996;4.458;2024-03-17T09:37:30;12.50;99.90
25112;DHT22;13092;51.996;4.458;2024-03-17T09:39:59;12.70;99.90
25112;DHT22;13092;51.996;4.458;2024-03-17T09:42:27;13.00;99.90
25112;DHT22;13092;51.996;4.458;2024-03-17T09:44:54;12.90;99.90
25112;DHT22;13092;51.996;4.458;2024-03-17T09:47:23;13.00;99.90
25112;DHT22;13092;51.996;4.458;2024-03-17T09:49:52;13.10;99.90
25112;DHT22;13092;51.996;4.458;2024-03-17T09:52:21;13.10;99.90
25112;DHT22;13092;51.996;4.458;2024-03-17T09:54:58;13.10;99.90
25112;DHT22;13092;51.996;4.458;2024-03-17T09:57:28;13.30;99.90
25112;DHT22;13092;51.996;4.458;2024-03-17T09:59:56;13.30;99.90
25112;DHT22;13092;51.996;4.458;2024-03-17T10:02:23;13.40;99.90
25112;DHT22;13092;51.996;4.458;2024-03-17T10:04:50;13.50;99.90
25112;DHT22;13092;51.996;4.458;2024-03-17T10:07:17;13.50;99.90
25112;DHT22;13092;51.996;4.458;2024-03-17T10:09:44;13.60;99.90
25112;DHT22;13092;51.996;4.458;2024-03-17T10:12:27;13.60;99.90
25112;DHT22;13092;51.996;4.458;2024-03-17T10:14:58;13.70;99.90
25112;DHT22;13092;51.996;4.458;2024-03-17T10:17:29;13.80;99.90
25112;DHT22;13092;51.996;4.458;2024-03-17T10:20:12;13.80;99.90
25112;DHT22;13092;51.996;4.458;2024-03-17T10:25:23;14.00;99.90
25112;DHT22;13092;51.996;4.458;2024-03-17T10:27:52;14.10;99.90
25112;DHT22;13092;51.996;4.458;2024-03-17T10:30:20;14.20;99.90
25112;DHT22;13092;51.996;4.458;2024-03-17T10:32:55;14.20;99.90
25112;DHT22;13092;51.996;4.458;2024-03-17T10:35:31;14.50;99.90
25112;DHT22;13092;51.996;4.458;2024-03-17T10:37:59;14.60;99.90
25112;DHT22;13092;51.996;4.458;2024-03-17T10:40:28;14.70;99.90
25112;DHT22;13092;51.996;4.458;2024-03-17T10:42:58;14.70;99.90
25112;DHT22;13092;51.996;4.458;2024-03-17T10:45:26;14.50;99.90
25112;DHT22;13092;51.996;4.458;2024-03-17T10:47:59;14.60;99.90
25112;DHT22;13092;51.996;4.458;2024-03-17T10:50:30;14.70;99.90
25112;DHT22;13092;51.996;4.458;2024-03-17T10:53:01;14.80;99.90
25112;DHT22;13092;51.996;4.458;2024-03-17T10:55:42;14.80;99.90
25112;DHT22;13092;51.996;4.458;2024-03-17T10:58:21;14.90;99.90
25112;DHT22;13092;51.996;4.458;2024-03-17T11:00:50;14.90;99.90
25112;DHT22;13092;51.996;4.458;2024-03-17T11:03:18;14.90;99.90
25112;DHT22;13092;51.996;4.458;2024-03-17T11:05:47;14.90;99.90
25112;DHT22;13092;51.996;4.458;2024-03-17T11:08:16;14.80;99.90
25112;DHT22;13092;51.996;4.458;2024-03-17T11:10:49;14.90;99.90
25112;DHT22;13092;51.996;4.458;2024-03-17T11:13:27;14.80;99.90
25112;DHT22;13092;51.996;4.458;2024-03-17T11:15:56;14.80;99.90
25112;DHT22;13092;51.996;4.458;2024-03-17T11:18:37;14.70;99.90
25112;DHT22;13092;51.996;4.458;2024-03-17T11:21:05;14.70;99.90
25112;DHT22;13092;51.996;4.458;2024-03-17T11:23:41;14.70;99.90
25112;DHT22;13092;51.996;4.458;2024-03-17T11:26:09;14.60;99.90
25112;DHT22;13092;51.996;4.458;2024-03-17T11:28:48;14.50;99.90
25112;DHT22;13092;51.996;4.458;2024-03-17T11:31:49;14.40;99.90
25112;DHT22;13092;51.996;4.458;2024-03-17T11:34:35;14.40;99.90
25112;DHT22;13092;51.996;4.458;2024-03-17T11:37:05;14.50;99.90
25112;DHT22;13092;51.996;4.458;2024-03-17T11:39:52;14.50;99.90
25112;DHT22;13092;51.996;4.458;2024-03-17T11:42:23;14.40;99.90
25112;DHT22;13092;51.996;4.458;2024-03-17T11:45:03;14.40;99.90
25112;DHT22;13092;51.996;4.458;2024-03-17T11:47:36;14.40;99.90
25112;DHT22;13092;51.996;4.458;2024-03-17T11:50:06;14.40;99.90
25112;DHT22;13092;51.996;4.458;2024-03-17T11:52:34;14.40;99.90
25112;DHT22;13092;51.996;4.458;2024-03-17T11:55:00;14.40;99.90
25112;DHT22;13092;51.996;4.458;2024-03-17T11:57:27;14.40;99.90
25112;DHT22;13092;51.996;4.458;2024-03-17T11:59:55;14.40;99.90
25112;DHT22;13092;51.996;4.458;2024-03-17T12:02:25;14.40;99.90
25112;DHT22;13092;51.996;4.458;2024-03-17T12:04:52;14.40;99.90
25112;DHT22;13092;51.996;4.458;2024-03-17T12:07:21;14.60;99.90
25112;DHT22;13092;51.996;4.458;2024-03-17T12:09:52;14.70;99.90
25112;DHT22;13092;51.996;4.458;2024-03-17T12:12:22;14.70;99.90
25112;DHT22;13092;51.996;4.458;2024-03-17T12:14:51;14.90;99.90
25112;DHT22;13092;51.996;4.458;2024-03-17T12:17:20;14.90;99.90
25112;DHT22;13092;51.996;4.458;2024-03-17T12:19:50;15.00;99.90
25112;DHT22;13092;51.996;4.458;2024-03-17T12:22:18;15.10;99.90
25112;DHT22;13092;51.996;4.458;2024-03-17T12:24:48;15.20;99.90
25112;DHT22;13092;51.996;4.458;2024-03-17T12:27:17;15.40;99.90
25112;DHT22;13092;51.996;4.458;2024-03-17T12:29:46;15.40;99.90
25112;DHT22;13092;51.996;4.458;2024-03-17T12:32:14;15.40;99.90
25112;DHT22;13092;51.996;4.458;2024-03-17T12:34:42;15.40;99.90
25112;DHT22;13092;51.996;4.458;2024-03-17T12:37:15;15.50;99.90
25112;DHT22;13092;51.996;4.458;2024-03-17T12:39:44;15.40;99.90
25112;DHT22;13092;51.996;4.458;2024-03-17T12:42:11;15.40;99.90
25112;DHT22;13092;51.996;4.458;2024-03-17T12:44:40;15.50;99.90
25112;DHT22;13092;51.996;4.458;2024-03-17T12:47:16;15.60;99.90
25112;DHT22;13092;51.996;4.458;2024-03-17T12:49:45;15.60;99.90
25112;DHT22;13092;51.996;4.458;2024-03-17T12:52:19;15.70;99.90
25112;DHT22;13092;51.996;4.458;2024-03-17T12:54:56;15.80;99.90
25112;DHT22;13092;51.996;4.458;2024-03-17T12:57:42;15.90;99.90
25112;DHT22;13092;51.996;4.458;2024-03-17T13:00:27;15.90;99.90
25112;DHT22;13092;51.996;4.458;2024-03-17T13:03:01;15.70;99.90
25112;DHT22;13092;51.996;4.458;2024-03-17T13:05:28;15.80;99.90
25112;DHT22;13092;51.996;4.458;2024-03-17T13:07:57;15.90;99.90
25112;DHT22;13092;51.996;4.458;2024-03-17T13:10:26;16.00;99.90
25112;DHT22;13092;51.996;4.458;2024-03-17T13:13:00;16.10;99.90
25112;DHT22;13092;51.996;4.458;2024-03-17T13:15:29;16.10;99.90
25112;DHT22;13092;51.996;4.458;2024-03-17T13:17:57;16.10;99.90
25112;DHT22;13092;51.996;4.458;2024-03-17T13:20:25;16.20;99.90
25112;DHT22;13092;51.996;4.458;2024-03-17T13:22:53;16.20;99.90
25112;DHT22;13092;51.996;4.458;2024-03-17T13:25:23;16.20;99.90
25112;DHT22;13092;51.996;4.458;2024-03-17T13:27:52;16.10;99.90
25112;DHT22;13092;51.996;4.458;2024-03-17T13:30:21;16.00;99.90
25112;DHT22;13092;51.996;4.458;2024-03-17T13:32:49;16.00;99.90
25112;DHT22;13092;51.996;4.458;2024-03-17T13:35:22;16.00;99.90
25112;DHT22;13092;51.996;4.458;2024-03-17T13:37:51;16.00;99.90
25112;DHT22;13092;51.996;4.458;2024-03-17T13:40:22;15.90;99.90
25112;DHT22;13092;51.996;4.458;2024-03-17T13:42:50;15.90;99.90
25112;DHT22;13092;51.996;4.458;2024-03-17T13:45:18;15.80;99.90
25112;DHT22;13092;51.996;4.458;2024-03-17T13:47:49;15.80;99.90
25112;DHT22;13092;51.996;4.458;2024-03-17T13:50:16;15.80;99.90
25112;DHT22;13092;51.996;4.458;2024-03-17T13:52:44;15.80;99.90
25112;DHT22;13092;51.996;4.458;2024-03-17T13:55:14;15.80;99.90
25112;DHT22;13092;51.996;4.458;2024-03-17T13:57:44;15.80;99.90
25112;DHT22;13092;51.996;4.458;2024-03-17T14:00:14;15.80;99.90
25112;DHT22;13092;51.996;4.458;2024-03-17T14:02:42;15.80;99.90
25112;DHT22;13092;51.996;4.458;2024-03-17T14:05:12;15.90;99.90
25112;DHT22;13092;51.996;4.458;2024-03-17T14:07:40;15.90;99.90
25112;DHT22;13092;51.996;4.458;2024-03-17T14:10:08;15.90;99.90
25112;DHT22;13092;51.996;4.458;2024-03-17T14:12:36;15.90;99.90
25112;DHT22;13092;51.996;4.458;2024-03-17T14:15:08;15.90;99.90
25112;DHT22;13092;51.996;4.458;2024-03-17T14:17:36;15.80;99.90
25112;DHT22;13092;51.996;4.458;2024-03-17T14:20:04;15.80;99.90
25112;DHT22;13092;51.996;4.458;2024-03-17T14:22:35;15.80;99.90
25112;DHT22;13092;51.996;4.458;2024-03-17T14:25:03;15.70;99.90
25112;DHT22;13092;51.996;4.458;2024-03-17T14:27:30;15.60;99.90
25112;DHT22;13092;51.996;4.458;2024-03-17T14:29:57;15.60;99.90
25112;DHT22;13092;51.996;4.458;2024-03-17T14:32:27;15.40;99.90
25112;DHT22;13092;51.996;4.458;2024-03-17T14:34:54;15.50;99.90
25112;DHT22;13092;51.996;4.458;2024-03-17T14:37:21;15.40;99.90
25112;DHT22;13092;51.996;4.458;2024-03-17T14:39:49;15.40;99.90
25112;DHT22;13092;51.996;4.458;2024-03-17T14:42:16;15.40;99.90
25112;DHT22;13092;51.996;4.458;2024-03-17T14:44:43;15.30;99.90
25112;DHT22;13092;51.996;4.458;2024-03-17T14:47:11;15.40;99.90
25112;DHT22;13092;51.996;4.458;2024-03-17T14:49:39;15.40;99.90
25112;DHT22;13092;51.996;4.458;2024-03-17T14:52:07;15.40;99.90
25112;DHT22;13092;51.996;4.458;2024-03-17T14:54:35;15.30;99.90
25112;DHT22;13092;51.996;4.458;2024-03-17T14:57:02;15.30;99.90
25112;DHT22;13092;51.996;4.458;2024-03-17T14:59:29;15.30;99.90
25112;DHT22;13092;51.996;4.458;2024-03-17T15:01:56;15.30;99.90
25112;DHT22;13092;51.996;4.458;2024-03-17T15:04:24;15.30;99.90
25112;DHT22;13092;51.996;4.458;2024-03-17T15:06:54;15.10;99.90
25112;DHT22;13092;51.996;4.458;2024-03-17T15:09:21;15.30;99.90
25112;DHT22;13092;51.996;4.458;2024-03-17T15:11:48;15.30;99.90
25112;DHT22;13092;51.996;4.458;2024-03-17T15:14:16;15.30;99.90
25112;DHT22;13092;51.996;4.458;2024-03-17T15:16:44;15.20;99.90
25112;DHT22;13092;51.996;4.458;2024-03-17T15:19:12;15.20;99.90
25112;DHT22;13092;51.996;4.458;2024-03-17T15:21:39;15.10;99.90
25112;DHT22;13092;51.996;4.458;2024-03-17T15:24:07;15.10;99.90
25112;DHT22;13092;51.996;4.458;2024-03-17T15:26:34;15.20;99.90
25112;DHT22;13092;51.996;4.458;2024-03-17T15:29:01;15.00;99.90
25112;DHT22;13092;51.996;4.458;2024-03-17T15:31:29;15.00;99.90
25112;DHT22;13092;51.996;4.458;2024-03-17T15:33:57;15.00;99.90
25112;DHT22;13092;51.996;4.458;2024-03-17T15:36:24;15.00;99.90
25112;DHT22;13092;51.996;4.458;2024-03-17T15:38:51;15.00;99.90
25112;DHT22;13092;51.996;4.458;2024-03-17T15:41:20;15.00;99.90
25112;DHT22;13092;51.996;4.458;2024-03-17T15:43:47;15.10;99.90
25112;DHT22;13092;51.996;4.458;2024-03-17T15:46:16;15.00;99.90
25112;DHT22;13092;51.996;4.458;2024-03-17T15:48:44;14.90;99.90
25112;DHT22;13092;51.996;4.458;2024-03-17T15:51:11;14.80;99.90